sensor_id;sensor_type;location;lat;lon;timestamp;pressure;altitude;pressure_sealevel;temperature;humidity
57668;BME280;43499;52.366;12.912;2023-04-21T00:00:07;101619.72;;;10.67;82.78
57668;BME280;43499;52.366;12.912;2023-04-21T00:01:10;101619.13;;;10.60;82.37
57668;BME280;43499;52.366;12.912;2023-04-21T00:02:12;101628.25;;;10.64;82.49
57668;BME280;43499;52.366;12.912;2023-04-21T00:03:15;101586.91;;;10.44;82.46
57668;BME280;43499;52.366;12.912;2023-04-21T00:04:17;101630.06;;;10.65;82.78
57668;BME280;43499;52.366;12.912;2023-04-21T00:05:19;101610.97;;;10.57;82.60
57668;BME280;43499;52.366;12.912;2023-04-21T00:06:20;101614.06;;;10.53;82.85
57668;BME280;43499;52.366;12.912;2023-04-21T00:07:22;101622.09;;;10.55;82.84
57668;BME280;43499;52.366;12.912;2023-04-21T00:08:24;101622.88;;;10.54;82.74
57668;BME280;43499;52.366;12.912;2023-04-21T00:09:28;101633.22;;;10.61;82.52
57668;BME280;43499;52.366;12.912;2023-04-21T00:10:29;101626.09;;;10.60;82.67
57668;BME280;43499;52.366;12.912;2023-04-21T00:11:30;101621.00;;;10.53;83.12
57668;BME280;43499;52.366;12.912;2023-04-21T00:12:31;101624.88;;;10.56;83.03
57668;BME280;43499;52.366;12.912;2023-04-21T00:13:33;101608.06;;;10.45;83.44
57668;BME280;43499;52.366;12.912;2023-04-21T00:14:35;101616.09;;;10.47;83.38
57668;BME280;43499;52.366;12.912;2023-04-21T00:15:36;101615.19;;;10.46;83.99
57668;BME280;43499;52.366;12.912;2023-04-21T00:16:37;101625.06;;;10.49;83.57
57668;BME280;43499;52.366;12.912;2023-04-21T00:17:38;101618.59;;;10.45;83.40
57668;BME280;43499;52.366;12.912;2023-04-21T00:18:39;101617.81;;;10.46;83.17
57668;BME280;43499;52.366;12.912;2023-04-21T00:19:40;101619.66;;;10.47;83.69
57668;BME280;43499;52.366;12.912;2023-04-21T00:20:42;101622.00;;;10.44;83.85
57668;BME280;43499;52.366;12.912;2023-04-21T00:21:43;101615.22;;;10.38;84.31
57668;BME280;43499;52.366;12.912;2023-04-21T00:22:44;101610.56;;;10.35;83.74
57668;BME280;43499;52.366;12.912;2023-04-21T00:23:45;101622.50;;;10.40;84.12
57668;BME280;43499;52.366;12.912;2023-04-21T00:24:47;101606.72;;;10.31;83.73
57668;BME280;43499;52.366;12.912;2023-04-21T00:25:48;101614.91;;;10.34;84.51
57668;BME280;43499;52.366;12.912;2023-04-21T00:26:49;101611.03;;;10.31;84.06
57668;BME280;43499;52.366;12.912;2023-04-21T00:27:50;101604.25;;;10.24;84.22
57668;BME280;43499;52.366;12.912;2023-04-21T00:28:51;101607.81;;;10.25;84.04
57668;BME280;43499;52.366;12.912;2023-04-21T00:29:52;101611.53;;;10.27;83.95
57668;BME280;43499;52.366;12.912;2023-04-21T00:30:53;101592.25;;;10.17;84.87
57668;BME280;43499;52.366;12.912;2023-04-21T00:31:54;101612.31;;;10.26;83.81
57668;BME280;43499;52.366;12.912;2023-04-21T00:32:55;101622.19;;;10.28;84.28
57668;BME280;43499;52.366;12.912;2023-04-21T00:33:56;101622.03;;;10.27;84.86
57668;BME280;43499;52.366;12.912;2023-04-21T00:34:57;101606.00;;;10.15;84.73
57668;BME280;43499;52.366;12.912;2023-04-21T00:35:59;101621.28;;;10.19;84.49
57668;BME280;43499;52.366;12.912;2023-04-21T00:37:01;101617.91;;;10.20;84.51
57668;BME280;43499;52.366;12.912;2023-04-21T00:38:03;101616.97;;;10.19;84.79
57668;BME280;43499;52.366;12.912;2023-04-21T00:39:04;101623.16;;;10.20;84.89
57668;BME280;43499;52.366;12.912;2023-04-21T00:40:05;101623.16;;;10.20;84.60
57668;BME280;43499;52.366;12.912;2023-04-21T00:41:07;101604.91;;;10.13;84.54
57668;BME280;43499;52.366;12.912;2023-04-21T00:42:08;101601.38;;;10.12;84.72
57668;BME280;43499;52.366;12.912;2023-04-21T00:43:09;101592.75;;;10.04;84.69
57668;BME280;43499;52.366;12.912;2023-04-21T00:44:10;101598.63;;;10.11;84.53
57668;BME280;43499;52.366;12.912;2023-04-21T00:45:11;101603.09;;;10.12;84.71
57668;BME280;43499;52.366;12.912;2023-04-21T00:46:14;101585.06;;;9.97;84.61
57668;BME280;43499;52.366;12.912;2023-04-21T00:47:15;101612.81;;;10.13;84.59
57668;BME280;43499;52.366;12.912;2023-04-21T00:48:16;101615.28;;;10.11;84.82
57668;BME280;43499;52.366;12.912;2023-04-21T00:49:17;101614.22;;;10.09;84.68
57668;BME280;43499;52.366;12.912;2023-04-21T00:50:18;101614.72;;;10.05;84.99
57668;BME280;43499;52.366;12.912;2023-04-21T00:51:19;101609.78;;;9.99;84.67
57668;BME280;43499;52.366;12.912;2023-04-21T00:52:21;101613.63;;;10.03;85.21
57668;BME280;43499;52.366;12.912;2023-04-21T00:53:22;101604.09;;;9.95;85.29
57668;BME280;43499;52.366;12.912;2023-04-21T00:54:23;101608.72;;;9.97;85.02
57668;BME280;43499;52.366;12.912;2023-04-21T00:55:25;101610.88;;;9.93;85.77
57668;BME280;43499;52.366;12.912;2023-04-21T00:56:29;101604.41;;;9.89;85.26
57668;BME280;43499;52.366;12.912;2023-04-21T00:57:30;101598.22;;;9.80;85.80
57668;BME280;43499;52.366;12.912;2023-04-21T00:58:32;101606.28;;;9.81;85.99
57668;BME280;43499;52.366;12.912;2023-04-21T00:59:34;101592.84;;;9.69;86.14
57668;BME280;43499;52.366;12.912;2023-04-21T01:00:37;101596.44;;;9.70;86.70
57668;BME280;43499;52.366;12.912;2023-04-21T01:01:39;101597.50;;;9.72;86.48
57668;BME280;43499;52.366;12.912;2023-04-21T01:02:41;101610.47;;;9.70;86.81
57668;BME280;43499;52.366;12.912;2023-04-21T01:03:42;101599.38;;;9.64;86.91
57668;BME280;43499;52.366;12.912;2023-04-21T01:04:44;101598.88;;;9.68;87.81
57668;BME280;43499;52.366;12.912;2023-04-21T01:05:45;101587.63;;;9.61;87.36
57668;BME280;43499;52.366;12.912;2023-04-21T01:06:46;101589.97;;;9.57;87.54
57668;BME280;43499;52.366;12.912;2023-04-21T01:07:48;101592.41;;;9.56;87.35
57668;BME280;43499;52.366;12.912;2023-04-21T01:08:51;101581.31;;;9.50;87.61
57668;BME280;43499;52.366;12.912;2023-04-21T01:09:52;101606.31;;;9.64;87.31
57668;BME280;43499;52.366;12.912;2023-04-21T01:10:53;101595.03;;;9.56;87.75
57668;BME280;43499;52.366;12.912;2023-04-21T01:12:20;101608.28;;;9.66;87.50
57668;BME280;43499;52.366;12.912;2023-04-21T01:13:21;101608.78;;;9.62;87.37
57668;BME280;43499;52.366;12.912;2023-04-21T01:14:22;101612.63;;;9.66;86.54
57668;BME280;43499;52.366;12.912;2023-04-21T01:15:23;101601.69;;;9.61;87.02
57668;BME280;43499;52.366;12.912;2023-04-21T01:16:26;101606.63;;;9.67;86.31
57668;BME280;43499;52.366;12.912;2023-04-21T01:17:28;101600.41;;;9.66;86.49
57668;BME280;43499;52.366;12.912;2023-04-21T01:18:31;101597.34;;;9.62;86.78
57668;BME280;43499;52.366;12.912;2023-04-21T01:19:37;101601.22;;;9.65;86.49
57668;BME280;43499;52.366;12.912;2023-04-21T01:20:41;101591.19;;;9.61;86.78
57668;BME280;43499;52.366;12.912;2023-04-21T01:21:42;101592.53;;;9.66;86.43
57668;BME280;43499;52.366;12.912;2023-04-21T01:22:43;101585.47;;;9.65;86.36
57668;BME280;43499;52.366;12.912;2023-04-21T01:23:46;101593.81;;;9.70;85.82
57668;BME280;43499;52.366;12.912;2023-04-21T01:24:48;101575.88;;;9.66;85.30
57668;BME280;43499;52.366;12.912;2023-04-21T01:25:50;101598.22;;;9.80;85.54
57668;BME280;43499;52.366;12.912;2023-04-21T01:26:51;101566.78;;;9.71;84.69
57668;BME280;43499;52.366;12.912;2023-04-21T01:27:52;101587.25;;;9.93;84.74
57668;BME280;43499;52.366;12.912;2023-04-21T01:28:57;101589.88;;;9.93;84.63
57668;BME280;43499;52.366;12.912;2023-04-21T01:29:58;101590.75;;;10.02;83.78
57668;BME280;43499;52.366;12.912;2023-04-21T01:31:01;101585.97;;;9.98;84.24
57668;BME280;43499;52.366;12.912;2023-04-21T01:32:04;101586.59;;;10.04;83.48
57668;BME280;43499;52.366;12.912;2023-04-21T01:33:06;101578.84;;;10.06;83.06
57668;BME280;43499;52.366;12.912;2023-04-21T01:34:07;101587.47;;;10.13;82.91
57668;BME280;43499;52.366;12.912;2023-04-21T01:35:08;101591.97;;;10.14;83.14
57668;BME280;43499;52.366;12.912;2023-04-21T01:36:12;101569.75;;;10.02;83.21
57668;BME280;43499;52.366;12.912;2023-04-21T01:37:18;101591.34;;;10.08;83.33
57668;BME280;43499;52.366;12.912;2023-04-21T01:38:19;101595.81;;;10.09;82.93
57668;BME280;43499;52.366;12.912;2023-04-21T01:39:21;101579.63;;;10.04;82.88
57668;BME280;43499;52.366;12.912;2023-04-21T01:40:22;101572.38;;;10.02;83.16
57668;BME280;43499;52.366;12.912;2023-04-21T01:41:23;101568.09;;;9.94;83.31
57668;BME280;43499;52.366;12.912;2023-04-21T01:42:26;101586.88;;;10.07;82.79
57668;BME280;43499;52.366;12.912;2023-04-21T01:43:27;101586.09;;;10.08;83.39
57668;BME280;43499;52.366;12.912;2023-04-21T01:44:28;101575.78;;;10.01;83.09
57668;BME280;43499;52.366;12.912;2023-04-21T01:45:30;101588.88;;;10.10;83.03
57668;BME280;43499;52.366;12.912;2023-04-21T01:46:31;101582.88;;;10.11;82.89
57668;BME280;43499;52.366;12.912;2023-04-21T01:47:32;101574.38;;;10.04;82.59
57668;BME280;43499;52.366;12.912;2023-04-21T01:48:35;101581.00;;;10.10;82.60
57668;BME280;43499;52.366;12.912;2023-04-21T01:49:37;101569.88;;;10.03;82.80
57668;BME280;43499;52.366;12.912;2023-04-21T01:50:38;101565.28;;;10.01;82.35
57668;BME280;43499;52.366;12.912;2023-04-21T01:51:40;101571.75;;;10.04;82.73
57668;BME280;43499;52.366;12.912;2023-04-21T01:52:41;101586.25;;;10.10;82.77
57668;BME280;43499;52.366;12.912;2023-04-21T01:53:42;101572.06;;;9.99;82.83
57668;BME280;43499;52.366;12.912;2023-04-21T01:54:43;101575.66;;;9.99;82.33
57668;BME280;43499;52.366;12.912;2023-04-21T01:55:44;101582.41;;;10.06;82.79
57668;BME280;43499;52.366;12.912;2023-04-21T01:56:45;101580.72;;;9.98;83.14
57668;BME280;43499;52.366;12.912;2023-04-21T01:57:46;101582.75;;;10.00;83.65
57668;BME280;43499;52.366;12.912;2023-04-21T01:58:47;101574.13;;;9.93;82.78
57668;BME280;43499;52.366;12.912;2023-04-21T01:59:48;101585.97;;;9.98;82.92
57668;BME280;43499;52.366;12.912;2023-04-21T02:00:50;101586.91;;;9.98;82.27
57668;BME280;43499;52.366;12.912;2023-04-21T02:01:51;101578.09;;;9.98;82.50
57668;BME280;43499;52.366;12.912;2023-04-21T02:02:52;101573.78;;;9.98;82.76
57668;BME280;43499;52.366;12.912;2023-04-21T02:03:53;101575.34;;;9.96;82.71
57668;BME280;43499;52.366;12.912;2023-04-21T02:04:54;101556.34;;;9.90;82.63
57668;BME280;43499;52.366;12.912;2023-04-21T02:05:55;101583.66;;;10.01;81.94
57668;BME280;43499;52.366;12.912;2023-04-21T02:06:56;101573.63;;;9.97;82.26
57668;BME280;43499;52.366;12.912;2023-04-21T02:07:57;101572.72;;;9.96;82.15
57668;BME280;43499;52.366;12.912;2023-04-21T02:08:58;101583.03;;;10.03;82.92
57668;BME280;43499;52.366;12.912;2023-04-21T02:10:03;101578.28;;;9.99;83.08
57668;BME280;43499;52.366;12.912;2023-04-21T02:11:04;101585.19;;;9.99;82.31
57668;BME280;43499;52.366;12.912;2023-04-21T02:12:06;101575.03;;;9.93;82.67
57668;BME280;43499;52.366;12.912;2023-04-21T02:13:07;101574.88;;;9.92;82.52
57668;BME280;43499;52.366;12.912;2023-04-21T02:14:10;101578.41;;;10.01;81.53
57668;BME280;43499;52.366;12.912;2023-04-21T02:15:14;101573.19;;;9.92;82.50
57668;BME280;43499;52.366;12.912;2023-04-21T02:16:16;101586.41;;;10.02;81.49
57668;BME280;43499;52.366;12.912;2023-04-21T02:17:21;101576.09;;;9.95;81.81
57668;BME280;43499;52.366;12.912;2023-04-21T02:18:22;101579.31;;;10.01;82.25
57668;BME280;43499;52.366;12.912;2023-04-21T02:19:25;101587.84;;;9.99;82.25
57668;BME280;43499;52.366;12.912;2023-04-21T02:20:28;101564.84;;;9.87;81.84
57668;BME280;43499;52.366;12.912;2023-04-21T02:21:29;101578.72;;;9.95;81.95
57668;BME280;43499;52.366;12.912;2023-04-21T02:22:32;101577.66;;;9.93;82.12
57668;BME280;43499;52.366;12.912;2023-04-21T02:23:33;101561.44;;;9.88;82.12
57668;BME280;43499;52.366;12.912;2023-04-21T02:24:34;101563.78;;;9.85;82.19
57668;BME280;43499;52.366;12.912;2023-04-21T02:25:35;101577.66;;;9.93;81.36
57668;BME280;43499;52.366;12.912;2023-04-21T02:26:36;101589.09;;;9.94;82.28
57668;BME280;43499;52.366;12.912;2023-04-21T02:27:38;101580.16;;;9.92;81.80
57668;BME280;43499;52.366;12.912;2023-04-21T02:28:39;101584.31;;;9.90;81.90
57668;BME280;43499;52.366;12.912;2023-04-21T02:29:40;101568.56;;;9.81;81.51
57668;BME280;43499;52.366;12.912;2023-04-21T02:30:42;101580.16;;;9.83;81.85
57668;BME280;43499;52.366;12.912;2023-04-21T02:31:43;101568.91;;;9.75;82.12
57668;BME280;43499;52.366;12.912;2023-04-21T02:32:44;101566.13;;;9.73;81.89
57668;BME280;43499;52.366;12.912;2023-04-21T02:33:45;101573.69;;;9.79;82.09
57668;BME280;43499;52.366;12.912;2023-04-21T02:34:47;101569.53;;;9.72;82.18
57668;BME280;43499;52.366;12.912;2023-04-21T02:35:48;101576.94;;;9.77;82.12
57668;BME280;43499;52.366;12.912;2023-04-21T02:36:49;101585.88;;;9.79;82.32
57668;BME280;43499;52.366;12.912;2023-04-21T02:37:50;101576.94;;;9.77;81.80
57668;BME280;43499;52.366;12.912;2023-04-21T02:38:51;101563.53;;;9.65;82.25
57668;BME280;43499;52.366;12.912;2023-04-21T02:39:52;101580.81;;;9.71;82.26
57668;BME280;43499;52.366;12.912;2023-04-21T02:40:53;101573.72;;;9.70;82.52
57668;BME280;43499;52.366;12.912;2023-04-21T02:41:55;101581.59;;;9.70;82.65
57668;BME280;43499;52.366;12.912;2023-04-21T02:42:56;101578.19;;;9.71;81.94
57668;BME280;43499;52.366;12.912;2023-04-21T02:43:57;101571.09;;;9.70;81.70
57668;BME280;43499;52.366;12.912;2023-04-21T02:44:58;101582.66;;;9.72;81.48
57668;BME280;43499;52.366;12.912;2023-04-21T02:46:04;101565.84;;;9.62;81.56
57668;BME280;43499;52.366;12.912;2023-04-21T02:47:05;101576.78;;;9.66;81.85
57668;BME280;43499;52.366;12.912;2023-04-21T02:48:06;101573.56;;;9.69;81.62
57668;BME280;43499;52.366;12.912;2023-04-21T02:49:08;101578.66;;;9.67;82.44
57668;BME280;43499;52.366;12.912;2023-04-21T02:50:12;101572.34;;;9.56;81.57
57668;BME280;43499;52.366;12.912;2023-04-21T02:51:13;101574.34;;;9.59;82.37
57668;BME280;43499;52.366;12.912;2023-04-21T02:52:15;101572.38;;;9.48;82.19
57668;BME280;43499;52.366;12.912;2023-04-21T02:53:16;101585.94;;;9.61;81.59
57668;BME280;43499;52.366;12.912;2023-04-21T02:54:17;101578.69;;;9.59;81.61
57668;BME280;43499;52.366;12.912;2023-04-21T02:55:19;101564.94;;;9.44;81.95
57668;BME280;43499;52.366;12.912;2023-04-21T02:56:20;101583.50;;;9.54;81.73
57668;BME280;43499;52.366;12.912;2023-04-21T02:57:22;101562.94;;;9.41;82.36
57668;BME280;43499;52.366;12.912;2023-04-21T02:58:23;101585.03;;;9.52;81.63
57668;BME280;43499;52.366;12.912;2023-04-21T02:59:24;101586.72;;;9.51;82.37
57668;BME280;43499;52.366;12.912;2023-04-21T03:00:25;101581.31;;;9.50;82.21
57668;BME280;43499;52.366;12.912;2023-04-21T03:01:26;101582.22;;;9.50;82.03
57668;BME280;43499;52.366;12.912;2023-04-21T03:02:27;101591.81;;;9.50;81.58
57668;BME280;43499;52.366;12.912;2023-04-21T03:03:29;101548.03;;;9.31;81.54
57668;BME280;43499;52.366;12.912;2023-04-21T03:04:31;101557.25;;;9.36;81.72
57668;BME280;43499;52.366;12.912;2023-04-21T03:05:33;101570.19;;;9.44;82.06
57668;BME280;43499;52.366;12.912;2023-04-21T03:06:34;101554.94;;;9.31;82.45
57668;BME280;43499;52.366;12.912;2023-04-21T03:07:35;101578.88;;;9.43;81.77
57668;BME280;43499;52.366;12.912;2023-04-21T03:08:38;101570.50;;;9.38;81.98
57668;BME280;43499;52.366;12.912;2023-04-21T03:09:40;101574.22;;;9.40;81.49
57668;BME280;43499;52.366;12.912;2023-04-21T03:10:42;101569.91;;;9.40;81.68
57668;BME280;43499;52.366;12.912;2023-04-21T03:11:43;101561.28;;;9.33;81.62
57668;BME280;43499;52.366;12.912;2023-04-21T03:12:46;101574.09;;;9.38;81.53
57668;BME280;43499;52.366;12.912;2023-04-21T03:13:47;101561.13;;;9.31;81.87
57668;BME280;43499;52.366;12.912;2023-04-21T03:14:48;101574.41;;;9.33;81.85
57668;BME280;43499;52.366;12.912;2023-04-21T03:15:49;101568.06;;;9.31;82.21
57668;BME280;43499;52.366;12.912;2023-04-21T03:16:50;101564.06;;;9.25;82.15
57668;BME280;43499;52.366;12.912;2023-04-21T03:17:51;101574.72;;;9.27;81.76
57668;BME280;43499;52.366;12.912;2023-04-21T03:18:52;101575.47;;;9.26;82.15
57668;BME280;43499;52.366;12.912;2023-04-21T03:19:53;101562.69;;;9.20;82.50
57668;BME280;43499;52.366;12.912;2023-04-21T03:20:58;101562.69;;;9.20;81.72
57668;BME280;43499;52.366;12.912;2023-04-21T03:22:00;101569.78;;;9.21;81.92
57668;BME280;43499;52.366;12.912;2023-04-21T03:23:01;101573.75;;;9.26;82.24
57668;BME280;43499;52.366;12.912;2023-04-21T03:24:04;101572.84;;;9.26;82.38
57668;BME280;43499;52.366;12.912;2023-04-21T03:25:06;101569.16;;;9.24;81.86
57668;BME280;43499;52.366;12.912;2023-04-21T03:26:07;101575.34;;;9.24;82.35
57668;BME280;43499;52.366;12.912;2023-04-21T03:27:08;101550.19;;;9.09;81.88
57668;BME280;43499;52.366;12.912;2023-04-21T03:28:09;101570.53;;;9.20;82.02
57668;BME280;43499;52.366;12.912;2023-04-21T03:29:11;101576.09;;;9.23;81.98
57668;BME280;43499;52.366;12.912;2023-04-21T03:30:12;101581.19;;;9.22;81.74
57668;BME280;43499;52.366;12.912;2023-04-21T03:31:13;101574.72;;;9.18;82.38
57668;BME280;43499;52.366;12.912;2023-04-21T03:32:14;101579.63;;;9.15;81.71
57668;BME280;43499;52.366;12.912;2023-04-21T03:33:15;101583.34;;;9.17;82.16
57668;BME280;43499;52.366;12.912;2023-04-21T03:34:16;101571.75;;;9.15;81.51
57668;BME280;43499;52.366;12.912;2023-04-21T03:35:17;101567.47;;;9.07;82.52
57668;BME280;43499;52.366;12.912;2023-04-21T03:36:18;101576.56;;;9.10;81.46
57668;BME280;43499;52.366;12.912;2023-04-21T03:37:20;101571.63;;;9.05;82.41
57668;BME280;43499;52.366;12.912;2023-04-21T03:38:23;101581.78;;;9.10;81.66
57668;BME280;43499;52.366;12.912;2023-04-21T03:39:24;101549.41;;;8.92;81.68
57668;BME280;43499;52.366;12.912;2023-04-21T03:40:26;101577.94;;;9.07;81.80
57668;BME280;43499;52.366;12.912;2023-04-21T03:41:27;101556.34;;;8.92;82.12
57668;BME280;43499;52.366;12.912;2023-04-21T03:42:28;101583.81;;;9.04;82.19
57668;BME280;43499;52.366;12.912;2023-04-21T03:43:31;101569.03;;;8.96;81.56
57668;BME280;43499;52.366;12.912;2023-04-21T03:44:32;101554.63;;;8.92;81.60
57668;BME280;43499;52.366;12.912;2023-04-21T03:45:35;101579.19;;;9.02;82.08
57668;BME280;43499;52.366;12.912;2023-04-21T03:46:36;101565.44;;;8.87;81.92
57668;BME280;43499;52.366;12.912;2023-04-21T03:47:37;101576.56;;;8.93;82.11
57668;BME280;43499;52.366;12.912;2023-04-21T03:48:39;101563.44;;;8.84;82.32
57668;BME280;43499;52.366;12.912;2023-04-21T03:49:40;101586.91;;;8.91;82.42
57668;BME280;43499;52.366;12.912;2023-04-21T03:50:41;101574.09;;;8.86;82.20
57668;BME280;43499;52.366;12.912;2023-04-21T03:51:42;101553.69;;;8.74;82.28
57668;BME280;43499;52.366;12.912;2023-04-21T03:52:43;101585.97;;;8.91;82.10
57668;BME280;43499;52.366;12.912;2023-04-21T03:53:44;101582.25;;;8.89;82.40
57668;BME280;43499;52.366;12.912;2023-04-21T03:54:45;101577.97;;;8.89;82.34
57668;BME280;43499;52.366;12.912;2023-04-21T03:55:49;101579.63;;;8.89;81.97
57668;BME280;43499;52.366;12.912;2023-04-21T03:56:50;101580.25;;;8.86;82.38
57668;BME280;43499;52.366;12.912;2023-04-21T03:57:51;101570.38;;;8.84;82.41
57668;BME280;43499;52.366;12.912;2023-04-21T03:58:52;101577.78;;;8.88;81.47
57668;BME280;43499;52.366;12.912;2023-04-21T03:59:53;101575.16;;;8.88;81.14
57668;BME280;43499;52.366;12.912;2023-04-21T04:00:54;101574.56;;;8.90;81.35
57668;BME280;43499;52.366;12.912;2023-04-21T04:01:55;101572.84;;;8.82;81.93
57668;BME280;43499;52.366;12.912;2023-04-21T04:02:56;101574.25;;;8.87;81.84
57668;BME280;43499;52.366;12.912;2023-04-21T04:03:57;101566.50;;;8.80;82.07
57668;BME280;43499;52.366;12.912;2023-04-21T04:04:58;101585.34;;;8.85;82.16
57668;BME280;43499;52.366;12.912;2023-04-21T04:05:59;101571.59;;;8.78;81.50
57668;BME280;43499;52.366;12.912;2023-04-21T04:07:00;101583.31;;;8.82;81.72
57668;BME280;43499;52.366;12.912;2023-04-21T04:08:01;101586.72;;;8.81;82.08
57668;BME280;43499;52.366;12.912;2023-04-21T04:09:03;101582.56;;;8.83;82.35
57668;BME280;43499;52.366;12.912;2023-04-21T04:10:04;101562.06;;;8.79;81.75
57668;BME280;43499;52.366;12.912;2023-04-21T04:11:05;101552.94;;;8.67;81.78
57668;BME280;43499;52.366;12.912;2023-04-21T04:12:06;101583.50;;;8.84;81.70
57668;BME280;43499;52.366;12.912;2023-04-21T04:13:07;101582.56;;;8.83;81.84
57668;BME280;43499;52.366;12.912;2023-04-21T04:14:09;101579.16;;;8.84;81.62
57668;BME280;43499;52.366;12.912;2023-04-21T04:15:10;101577.63;;;8.86;81.58
57668;BME280;43499;52.366;12.912;2023-04-21T04:16:11;101573.16;;;8.85;81.62
57668;BME280;43499;52.366;12.912;2023-04-21T04:17:12;101584.59;;;8.86;81.50
57668;BME280;43499;52.366;12.912;2023-04-21T04:18:13;101591.66;;;8.87;80.65
57668;BME280;43499;52.366;12.912;2023-04-21T04:19:14;101581.34;;;8.88;80.77
57668;BME280;43499;52.366;12.912;2023-04-21T04:20:15;101569.75;;;8.77;81.83
57668;BME280;43499;52.366;12.912;2023-04-21T04:21:16;101579.94;;;8.83;81.05
57668;BME280;43499;52.366;12.912;2023-04-21T04:22:18;101567.59;;;8.73;81.30
57668;BME280;43499;52.366;12.912;2023-04-21T04:23:19;101583.19;;;8.89;81.03
57668;BME280;43499;52.366;12.912;2023-04-21T04:24:20;101599.06;;;8.91;81.09
57668;BME280;43499;52.366;12.912;2023-04-21T04:25:21;101591.84;;;8.88;80.97
57668;BME280;43499;52.366;12.912;2023-04-21T04:26:22;101582.88;;;8.86;80.96
57668;BME280;43499;52.366;12.912;2023-04-21T04:27:24;101572.84;;;8.82;80.78
57668;BME280;43499;52.366;12.912;2023-04-21T04:28:26;101592.75;;;8.98;80.38
57668;BME280;43499;52.366;12.912;2023-04-21T04:29:28;101587.97;;;9.02;80.06
57668;BME280;43499;52.366;12.912;2023-04-21T04:30:29;101581.06;;;9.03;80.15
57668;BME280;43499;52.366;12.912;2023-04-21T04:31:32;101582.88;;;9.04;80.03
57668;BME280;43499;52.366;12.912;2023-04-21T04:32:34;101585.50;;;9.13;79.54
57668;BME280;43499;52.366;12.912;2023-04-21T04:33:40;101579.81;;;9.17;79.61
57668;BME280;43499;52.366;12.912;2023-04-21T04:34:42;101591.22;;;9.26;79.19
57668;BME280;43499;52.366;12.912;2023-04-21T04:35:43;101588.28;;;9.32;78.89
57668;BME280;43499;52.366;12.912;2023-04-21T04:36:45;101583.81;;;9.39;78.75
57668;BME280;43499;52.366;12.912;2023-04-21T04:37:47;101587.78;;;9.45;78.73
57668;BME280;43499;52.366;12.912;2023-04-21T04:38:49;101585.81;;;9.51;77.84
57668;BME280;43499;52.366;12.912;2023-04-21T04:39:54;101582.41;;;9.52;77.60
57668;BME280;43499;52.366;12.912;2023-04-21T04:40:55;101586.84;;;9.62;78.00
57668;BME280;43499;52.366;12.912;2023-04-21T04:41:57;101589.16;;;9.67;77.54
57668;BME280;43499;52.366;12.912;2023-04-21T04:42:58;101587.59;;;9.69;77.06
57668;BME280;43499;52.366;12.912;2023-04-21T04:43:59;101586.50;;;9.76;76.92
57668;BME280;43499;52.366;12.912;2023-04-21T04:45:01;101590.03;;;9.85;76.46
57668;BME280;43499;52.366;12.912;2023-04-21T04:46:03;101583.88;;;9.85;76.21
57668;BME280;43499;52.366;12.912;2023-04-21T04:47:04;101573.56;;;9.78;76.32
57668;BME280;43499;52.366;12.912;2023-04-21T04:48:05;101574.34;;;9.68;76.27
57668;BME280;43499;52.366;12.912;2023-04-21T04:49:06;101591.44;;;9.73;76.23
57668;BME280;43499;52.366;12.912;2023-04-21T04:50:08;101592.53;;;9.66;76.15
57668;BME280;43499;52.366;12.912;2023-04-21T04:51:09;101581.31;;;9.59;76.78
57668;BME280;43499;52.366;12.912;2023-04-21T04:52:10;101591.50;;;9.64;76.39
57668;BME280;43499;52.366;12.912;2023-04-21T04:53:11;101572.66;;;9.60;76.22
57668;BME280;43499;52.366;12.912;2023-04-21T04:54:12;101588.25;;;9.67;76.79
57668;BME280;43499;52.366;12.912;2023-04-21T04:55:13;101594.41;;;9.67;75.77
57668;BME280;43499;52.366;12.912;2023-04-21T04:56:14;101585.31;;;9.64;76.58
57668;BME280;43499;52.366;12.912;2023-04-21T04:57:15;101587.44;;;9.77;75.69
57668;BME280;43499;52.366;12.912;2023-04-21T04:58:16;101588.97;;;9.83;76.06
57668;BME280;43499;52.366;12.912;2023-04-21T04:59:18;101594.31;;;10.02;75.37
57668;BME280;43499;52.366;12.912;2023-04-21T05:00:19;101576.84;;;10.12;74.64
57668;BME280;43499;52.366;12.912;2023-04-21T05:01:20;101581.69;;;10.26;73.69
57668;BME280;43499;52.366;12.912;2023-04-21T05:02:22;101579.94;;;10.35;73.40
57668;BME280;43499;52.366;12.912;2023-04-21T05:03:23;101587.47;;;10.50;72.67
57668;BME280;43499;52.366;12.912;2023-04-21T05:04:24;101572.31;;;10.56;72.45
57668;BME280;43499;52.366;12.912;2023-04-21T05:05:26;101586.41;;;10.76;71.75
57668;BME280;43499;52.366;12.912;2023-04-21T05:06:27;101586.91;;;10.91;71.58
57668;BME280;43499;52.366;12.912;2023-04-21T05:07:28;101569.16;;;10.88;71.12
57668;BME280;43499;52.366;12.912;2023-04-21T05:08:29;101567.16;;;10.86;70.51
57668;BME280;43499;52.366;12.912;2023-04-21T05:09:30;101574.34;;;10.97;70.21
57668;BME280;43499;52.366;12.912;2023-04-21T05:10:31;101578.91;;;11.08;70.15
57668;BME280;43499;52.366;12.912;2023-04-21T05:11:32;101583.94;;;11.16;69.76
57668;BME280;43499;52.366;12.912;2023-04-21T05:12:33;101589.97;;;11.34;69.54
57668;BME280;43499;52.366;12.912;2023-04-21T05:13:35;101595.25;;;11.34;68.75
57668;BME280;43499;52.366;12.912;2023-04-21T05:14:36;101597.09;;;11.35;68.71
57668;BME280;43499;52.366;12.912;2023-04-21T05:15:37;101582.25;;;11.46;68.12
57668;BME280;43499;52.366;12.912;2023-04-21T05:16:38;101592.25;;;11.69;67.92
57668;BME280;43499;52.366;12.912;2023-04-21T05:17:39;101584.44;;;11.60;67.49
57668;BME280;43499;52.366;12.912;2023-04-21T05:18:40;101595.72;;;11.78;67.24
57668;BME280;43499;52.366;12.912;2023-04-21T05:19:41;101597.09;;;11.83;66.87
57668;BME280;43499;52.366;12.912;2023-04-21T05:20:42;101585.75;;;11.84;66.96